sensor_id;sensor_type;location;lat;lon;timestamp;P1;durP1;ratioP1;P2;durP2;ratioP2
4389;SDS011;2209;48.982;8.406;2023-11-19T00:01:38;1.40;;;1.03;;
4389;SDS011;2209;48.982;8.406;2023-11-19T00:04:00;1.00;;;0.90;;
4389;SDS011;2209;48.982;8.406;2023-11-19T00:06:25;0.90;;;0.90;;
4389;SDS011;2209;48.982;8.406;2023-11-19T00:08:49;1.00;;;0.90;;
4389;SDS011;2209;48.982;8.406;2023-11-19T00:11:11;1.03;;;0.90;;
4389;SDS011;2209;48.982;8.406;2023-11-19T00:13:35;0.83;;;0.83;;
4389;SDS011;2209;48.982;8.406;2023-11-19T00:15:57;0.80;;;0.80;;
4389;SDS011;2209;48.982;8.406;2023-11-19T00:18:19;1.10;;;0.90;;
4389;SDS011;2209;48.982;8.406;2023-11-19T00:20:42;0.80;;;0.80;;
4389;SDS011;2209;48.982;8.406;2023-11-19T00:23:05;0.80;;;0.80;;
4389;SDS011;2209;48.982;8.406;2023-11-19T00:25:28;0.80;;;0.80;;
4389;SDS011;2209;48.982;8.406;2023-11-19T00:27:49;1.20;;;0.87;;
4389;SDS011;2209;48.982;8.406;2023-11-19T00:30:14;0.80;;;0.80;;
4389;SDS011;2209;48.982;8.406;2023-11-19T00:32:37;0.83;;;0.83;;
4389;SDS011;2209;48.982;8.406;2023-11-19T00:34:59;0.83;;;0.83;;
4389;SDS011;2209;48.982;8.406;2023-11-19T00:37:22;1.43;;;0.90;;
4389;SDS011;2209;48.982;8.406;2023-11-19T00:39:44;1.03;;;0.80;;
4389;SDS011;2209;48.982;8.406;2023-11-19T00:42:07;0.70;;;0.70;;
4389;SDS011;2209;48.982;8.406;2023-11-19T00:44:30;1.40;;;0.93;;
4389;SDS011;2209;48.982;8.406;2023-11-19T00:46:52;1.20;;;1.10;;
4389;SDS011;2209;48.982;8.406;2023-11-19T00:49:14;0.93;;;0.90;;
4389;SDS011;2209;48.982;8.406;2023-11-19T00:51:36;2.07;;;1.60;;
4389;SDS011;2209;48.982;8.406;2023-11-19T00:53:59;0.93;;;0.90;;
4389;SDS011;2209;48.982;8.406;2023-11-19T00:56:21;1.03;;;0.70;;
4389;SDS011;2209;48.982;8.406;2023-11-19T00:58:44;0.90;;;0.80;;
4389;SDS011;2209;48.982;8.406;2023-11-19T01:01:06;0.83;;;0.83;;
4389;SDS011;2209;48.982;8.406;2023-11-19T01:03:28;2.90;;;0.70;;
4389;SDS011;2209;48.982;8.406;2023-11-19T01:05:51;0.90;;;0.70;;
4389;SDS011;2209;48.982;8.406;2023-11-19T01:08:14;0.80;;;0.70;;
4389;SDS011;2209;48.982;8.406;2023-11-19T01:10:36;0.80;;;0.70;;
4389;SDS011;2209;48.982;8.406;2023-11-19T01:12:58;1.10;;;0.80;;
4389;SDS011;2209;48.982;8.406;2023-11-19T01:15:22;0.80;;;0.70;;
4389;SDS011;2209;48.982;8.406;2023-11-19T01:17:44;0.80;;;0.80;;
4389;SDS011;2209;48.982;8.406;2023-11-19T01:20:06;1.10;;;0.70;;
4389;SDS011;2209;48.982;8.406;2023-11-19T01:22:32;0.70;;;0.70;;
4389;SDS011;2209;48.982;8.406;2023-11-19T01:24:54;0.90;;;0.70;;
4389;SDS011;2209;48.982;8.406;2023-11-19T01:27:16;1.00;;;0.80;;
4389;SDS011;2209;48.982;8.406;2023-11-19T01:29:38;0.80;;;0.80;;
4389;SDS011;2209;48.982;8.406;2023-11-19T01:32:02;0.80;;;0.80;;
4389;SDS011;2209;48.982;8.406;2023-11-19T01:34:25;0.70;;;0.70;;
4389;SDS011;2209;48.982;8.406;2023-11-19T01:36:47;1.43;;;0.80;;
4389;SDS011;2209;48.982;8.406;2023-11-19T01:39:09;1.70;;;0.80;;
4389;SDS011;2209;48.982;8.406;2023-11-19T01:41:33;2.40;;;0.80;;
4389;SDS011;2209;48.982;8.406;2023-11-19T01:43:57;0.73;;;0.73;;
4389;SDS011;2209;48.982;8.406;2023-11-19T01:46:19;1.00;;;0.90;;
4389;SDS011;2209;48.982;8.406;2023-11-19T01:48:43;1.63;;;0.90;;
4389;SDS011;2209;48.982;8.406;2023-11-19T01:51:06;0.70;;;0.70;;
4389;SDS011;2209;48.982;8.406;2023-11-19T01:53:29;1.13;;;0.83;;
4389;SDS011;2209;48.982;8.406;2023-11-19T01:55:52;0.80;;;0.80;;
4389;SDS011;2209;48.982;8.406;2023-11-19T01:58:14;0.80;;;0.80;;
4389;SDS011;2209;48.982;8.406;2023-11-19T02:00:37;1.67;;;0.80;;
4389;SDS011;2209;48.982;8.406;2023-11-19T02:03:00;0.90;;;0.70;;
4389;SDS011;2209;48.982;8.406;2023-11-19T02:05:25;1.53;;;1.00;;
4389;SDS011;2209;48.982;8.406;2023-11-19T02:07:47;1.20;;;0.80;;
4389;SDS011;2209;48.982;8.406;2023-11-19T02:10:10;0.90;;;0.90;;
4389;SDS011;2209;48.982;8.406;2023-11-19T02:12:34;1.33;;;0.83;;
4389;SDS011;2209;48.982;8.406;2023-11-19T02:14:57;0.80;;;0.80;;
4389;SDS011;2209;48.982;8.406;2023-11-19T02:17:25;1.83;;;1.30;;
4389;SDS011;2209;48.982;8.406;2023-11-19T02:19:48;0.80;;;0.80;;
4389;SDS011;2209;48.982;8.406;2023-11-19T02:22:11;1.00;;;0.90;;
4389;SDS011;2209;48.982;8.406;2023-11-19T02:24:33;4.07;;;1.07;;
4389;SDS011;2209;48.982;8.406;2023-11-19T02:26:57;1.40;;;1.00;;
4389;SDS011;2209;48.982;8.406;2023-11-19T02:29:24;1.70;;;0.90;;
4389;SDS011;2209;48.982;8.406;2023-11-19T02:31:46;1.20;;;1.10;;
4389;SDS011;2209;48.982;8.406;2023-11-19T02:34:09;0.70;;;0.70;;
4389;SDS011;2209;48.982;8.406;2023-11-19T02:36:32;1.30;;;1.10;;
4389;SDS011;2209;48.982;8.406;2023-11-19T02:38:54;1.10;;;1.00;;
4389;SDS011;2209;48.982;8.406;2023-11-19T02:41:16;0.93;;;0.80;;
4389;SDS011;2209;48.982;8.406;2023-11-19T02:43:38;1.03;;;0.93;;
4389;SDS011;2209;48.982;8.406;2023-11-19T02:46:01;2.23;;;1.40;;
4389;SDS011;2209;48.982;8.406;2023-11-19T02:48:27;1.10;;;1.00;;
4389;SDS011;2209;48.982;8.406;2023-11-19T02:50:49;1.00;;;0.90;;
4389;SDS011;2209;48.982;8.406;2023-11-19T02:53:13;1.47;;;1.03;;
4389;SDS011;2209;48.982;8.406;2023-11-19T02:55:36;1.00;;;0.90;;
4389;SDS011;2209;48.982;8.406;2023-11-19T02:58:01;1.30;;;1.20;;
4389;SDS011;2209;48.982;8.406;2023-11-19T03:00:28;1.20;;;1.00;;
4389;SDS011;2209;48.982;8.406;2023-11-19T03:02:57;1.53;;;1.00;;
4389;SDS011;2209;48.982;8.406;2023-11-19T03:05:20;2.50;;;1.33;;
4389;SDS011;2209;48.982;8.406;2023-11-19T03:07:42;1.07;;;1.07;;
4389;SDS011;2209;48.982;8.406;2023-11-19T03:10:05;2.33;;;1.40;;
4389;SDS011;2209;48.982;8.406;2023-11-19T03:12:29;1.00;;;0.90;;
4389;SDS011;2209;48.982;8.406;2023-11-19T03:14:51;1.03;;;0.80;;
4389;SDS011;2209;48.982;8.406;2023-11-19T03:17:13;1.30;;;1.20;;
4389;SDS011;2209;48.982;8.406;2023-11-19T03:19:36;1.30;;;1.20;;
4389;SDS011;2209;48.982;8.406;2023-11-19T03:21:58;1.30;;;1.20;;
4389;SDS011;2209;48.982;8.406;2023-11-19T03:24:20;5.80;;;1.10;;
4389;SDS011;2209;48.982;8.406;2023-11-19T03:26:42;1.83;;;1.00;;
4389;SDS011;2209;48.982;8.406;2023-11-19T03:29:09;1.27;;;1.17;;
4389;SDS011;2209;48.982;8.406;2023-11-19T03:31:31;1.70;;;1.10;;
4389;SDS011;2209;48.982;8.406;2023-11-19T03:33:53;2.20;;;1.03;;
4389;SDS011;2209;48.982;8.406;2023-11-19T03:36:16;1.17;;;1.07;;
4389;SDS011;2209;48.982;8.406;2023-11-19T03:38:39;1.20;;;1.10;;
4389;SDS011;2209;48.982;8.406;2023-11-19T03:41:09;1.37;;;1.27;;
4389;SDS011;2209;48.982;8.406;2023-11-19T03:43:32;1.43;;;1.10;;
4389;SDS011;2209;48.982;8.406;2023-11-19T03:45:54;1.37;;;1.00;;
4389;SDS011;2209;48.982;8.406;2023-11-19T03:48:16;1.97;;;1.10;;
4389;SDS011;2209;48.982;8.406;2023-11-19T03:50:39;1.53;;;1.43;;
4389;SDS011;2209;48.982;8.406;2023-11-19T03:53:02;0.97;;;0.97;;
4389;SDS011;2209;48.982;8.406;2023-11-19T03:55:25;1.17;;;1.07;;
4389;SDS011;2209;48.982;8.406;2023-11-19T03:57:47;1.97;;;1.00;;
4389;SDS011;2209;48.982;8.406;2023-11-19T04:00:09;1.47;;;1.37;;
4389;SDS011;2209;48.982;8.406;2023-11-19T04:02:34;1.20;;;1.10;;
4389;SDS011;2209;48.982;8.406;2023-11-19T04:04:56;1.00;;;1.00;;
4389;SDS011;2209;48.982;8.406;2023-11-19T04:07:18;0.90;;;0.90;;
4389;SDS011;2209;48.982;8.406;2023-11-19T04:09:42;1.10;;;1.00;;
4389;SDS011;2209;48.982;8.406;2023-11-19T04:12:04;1.40;;;1.30;;
4389;SDS011;2209;48.982;8.406;2023-11-19T04:14:27;1.30;;;1.10;;
4389;SDS011;2209;48.982;8.406;2023-11-19T04:16:49;0.80;;;0.80;;
4389;SDS011;2209;48.982;8.406;2023-11-19T04:19:11;2.03;;;1.20;;
4389;SDS011;2209;48.982;8.406;2023-11-19T04:21:33;1.00;;;0.90;;
4389;SDS011;2209;48.982;8.406;2023-11-19T04:23:55;0.90;;;0.90;;
4389;SDS011;2209;48.982;8.406;2023-11-19T04:26:18;1.03;;;0.97;;
4389;SDS011;2209;48.982;8.406;2023-11-19T04:28:41;3.83;;;1.10;;
4389;SDS011;2209;48.982;8.406;2023-11-19T04:31:03;1.07;;;0.97;;
4389;SDS011;2209;48.982;8.406;2023-11-19T04:33:26;1.10;;;0.83;;
4389;SDS011;2209;48.982;8.406;2023-11-19T04:35:48;0.90;;;0.80;;
4389;SDS011;2209;48.982;8.406;2023-11-19T04:38:10;1.10;;;0.90;;
4389;SDS011;2209;48.982;8.406;2023-11-19T04:40:32;1.83;;;0.80;;
4389;SDS011;2209;48.982;8.406;2023-11-19T04:42:56;1.50;;;1.00;;
4389;SDS011;2209;48.982;8.406;2023-11-19T04:45:18;1.10;;;0.90;;
4389;SDS011;2209;48.982;8.406;2023-11-19T04:47:40;0.90;;;0.90;;
4389;SDS011;2209;48.982;8.406;2023-11-19T04:50:02;1.10;;;0.90;;
4389;SDS011;2209;48.982;8.406;2023-11-19T04:52:25;0.80;;;0.80;;
4389;SDS011;2209;48.982;8.406;2023-11-19T04:54:47;1.00;;;0.90;;
4389;SDS011;2209;48.982;8.406;2023-11-19T04:57:09;2.07;;;0.90;;
4389;SDS011;2209;48.982;8.406;2023-11-19T04:59:35;1.00;;;0.80;;
4389;SDS011;2209;48.982;8.406;2023-11-19T05:01:57;3.60;;;0.87;;
4389;SDS011;2209;48.982;8.406;2023-11-19T05:04:19;1.00;;;0.90;;
4389;SDS011;2209;48.982;8.406;2023-11-19T05:06:41;4.90;;;1.37;;
4389;SDS011;2209;48.982;8.406;2023-11-19T05:09:03;1.00;;;0.90;;
4389;SDS011;2209;48.982;8.406;2023-11-19T05:11:27;1.10;;;1.00;;
4389;SDS011;2209;48.982;8.406;2023-11-19T05:13:49;1.80;;;0.83;;
4389;SDS011;2209;48.982;8.406;2023-11-19T05:16:13;1.00;;;0.90;;
4389;SDS011;2209;48.982;8.406;2023-11-19T05:18:35;1.43;;;0.93;;
4389;SDS011;2209;48.982;8.406;2023-11-19T05:20:57;1.80;;;0.80;;
4389;SDS011;2209;48.982;8.406;2023-11-19T05:23:19;0.80;;;0.80;;
4389;SDS011;2209;48.982;8.406;2023-11-19T05:25:41;1.67;;;0.80;;
4389;SDS011;2209;48.982;8.406;2023-11-19T05:28:03;0.90;;;0.70;;
4389;SDS011;2209;48.982;8.406;2023-11-19T05:30:24;0.80;;;0.70;;
4389;SDS011;2209;48.982;8.406;2023-11-19T05:32:48;1.33;;;0.90;;
4389;SDS011;2209;48.982;8.406;2023-11-19T05:35:10;1.33;;;0.90;;
4389;SDS011;2209;48.982;8.406;2023-11-19T05:37:33;0.70;;;0.70;;
4389;SDS011;2209;48.982;8.406;2023-11-19T05:39:55;0.90;;;0.70;;
4389;SDS011;2209;48.982;8.406;2023-11-19T05:42:17;0.80;;;0.80;;
4389;SDS011;2209;48.982;8.406;2023-11-19T05:44:39;0.70;;;0.70;;
4389;SDS011;2209;48.982;8.406;2023-11-19T05:47:01;0.70;;;0.70;;
4389;SDS011;2209;48.982;8.406;2023-11-19T05:49:24;0.80;;;0.70;;
4389;SDS011;2209;48.982;8.406;2023-11-19T05:51:46;0.90;;;0.80;;
4389;SDS011;2209;48.982;8.406;2023-11-19T05:54:09;1.87;;;0.70;;
4389;SDS011;2209;48.982;8.406;2023-11-19T05:56:31;1.63;;;0.70;;
4389;SDS011;2209;48.982;8.406;2023-11-19T05:58:53;0.70;;;0.70;;
4389;SDS011;2209;48.982;8.406;2023-11-19T06:01:16;0.80;;;0.67;;
4389;SDS011;2209;48.982;8.406;2023-11-19T06:03:38;1.07;;;0.80;;
4389;SDS011;2209;48.982;8.406;2023-11-19T06:06:02;1.83;;;0.77;;
4389;SDS011;2209;48.982;8.406;2023-11-19T06:08:25;0.80;;;0.80;;
4389;SDS011;2209;48.982;8.406;2023-11-19T06:10:48;1.57;;;0.70;;
4389;SDS011;2209;48.982;8.406;2023-11-19T06:13:11;0.70;;;0.70;;
4389;SDS011;2209;48.982;8.406;2023-11-19T06:15:35;0.70;;;0.70;;
4389;SDS011;2209;48.982;8.406;2023-11-19T06:17:57;0.70;;;0.70;;
4389;SDS011;2209;48.982;8.406;2023-11-19T06:20:21;0.70;;;0.60;;
4389;SDS011;2209;48.982;8.406;2023-11-19T06:22:44;1.13;;;0.60;;
4389;SDS011;2209;48.982;8.406;2023-11-19T06:25:07;0.70;;;0.70;;
4389;SDS011;2209;48.982;8.406;2023-11-19T06:27:29;1.30;;;0.90;;
4389;SDS011;2209;48.982;8.406;2023-11-19T06:29:51;1.27;;;0.77;;
4389;SDS011;2209;48.982;8.406;2023-11-19T06:32:13;0.80;;;0.70;;
4389;SDS011;2209;48.982;8.406;2023-11-19T06:34:35;1.73;;;0.70;;
4389;SDS011;2209;48.982;8.406;2023-11-19T06:36:58;0.70;;;0.60;;
4389;SDS011;2209;48.982;8.406;2023-11-19T06:39:21;0.80;;;0.80;;
4389;SDS011;2209;48.982;8.406;2023-11-19T06:41:46;0.90;;;0.60;;
4389;SDS011;2209;48.982;8.406;2023-11-19T06:44:09;0.90;;;0.70;;
4389;SDS011;2209;48.982;8.406;2023-11-19T06:46:31;1.87;;;0.77;;
4389;SDS011;2209;48.982;8.406;2023-11-19T06:48:53;0.70;;;0.60;;
4389;SDS011;2209;48.982;8.406;2023-11-19T06:51:15;0.80;;;0.80;;
4389;SDS011;2209;48.982;8.406;2023-11-19T06:53:37;1.90;;;0.67;;
4389;SDS011;2209;48.982;8.406;2023-11-19T06:56:02;1.77;;;0.60;;
4389;SDS011;2209;48.982;8.406;2023-11-19T06:58:26;0.70;;;0.60;;
4389;SDS011;2209;48.982;8.406;2023-11-19T07:00:48;0.70;;;0.70;;
4389;SDS011;2209;48.982;8.406;2023-11-19T07:03:11;0.70;;;0.63;;
4389;SDS011;2209;48.982;8.406;2023-11-19T07:05:35;2.10;;;0.70;;
4389;SDS011;2209;48.982;8.406;2023-11-19T07:07:58;0.70;;;0.70;;
4389;SDS011;2209;48.982;8.406;2023-11-19T07:10:21;0.70;;;0.60;;
4389;SDS011;2209;48.982;8.406;2023-11-19T07:12:45;1.07;;;0.70;;
4389;SDS011;2209;48.982;8.406;2023-11-19T07:15:07;1.33;;;0.90;;
4389;SDS011;2209;48.982;8.406;2023-11-19T07:17:30;3.33;;;0.90;;
4389;SDS011;2209;48.982;8.406;2023-11-19T07:19:52;1.00;;;0.60;;
4389;SDS011;2209;48.982;8.406;2023-11-19T07:22:14;0.60;;;0.60;;
4389;SDS011;2209;48.982;8.406;2023-11-19T07:24:38;1.10;;;0.70;;
4389;SDS011;2209;48.982;8.406;2023-11-19T07:27:00;1.90;;;0.60;;
4389;SDS011;2209;48.982;8.406;2023-11-19T07:29:25;0.70;;;0.60;;
4389;SDS011;2209;48.982;8.406;2023-11-19T07:31:48;2.03;;;0.90;;
4389;SDS011;2209;48.982;8.406;2023-11-19T07:34:10;0.70;;;0.60;;
4389;SDS011;2209;48.982;8.406;2023-11-19T07:36:32;0.70;;;0.70;;
4389;SDS011;2209;48.982;8.406;2023-11-19T07:38:54;2.80;;;0.90;;
4389;SDS011;2209;48.982;8.406;2023-11-19T07:41:17;1.53;;;0.60;;
4389;SDS011;2209;48.982;8.406;2023-11-19T07:43:41;1.20;;;0.60;;
4389;SDS011;2209;48.982;8.406;2023-11-19T07:46:06;0.80;;;0.80;;
4389;SDS011;2209;48.982;8.406;2023-11-19T07:48:33;0.60;;;0.60;;
4389;SDS011;2209;48.982;8.406;2023-11-19T07:50:55;0.77;;;0.77;;
4389;SDS011;2209;48.982;8.406;2023-11-19T07:53:16;0.70;;;0.70;;
4389;SDS011;2209;48.982;8.406;2023-11-19T07:55:38;1.13;;;0.60;;
4389;SDS011;2209;48.982;8.406;2023-11-19T07:58:00;0.60;;;0.60;;
4389;SDS011;2209;48.982;8.406;2023-11-19T08:00:22;1.03;;;0.70;;
4389;SDS011;2209;48.982;8.406;2023-11-19T08:02:45;0.60;;;0.57;;
4389;SDS011;2209;48.982;8.406;2023-11-19T08:05:08;0.70;;;0.70;;
4389;SDS011;2209;48.982;8.406;2023-11-19T08:07:30;1.03;;;0.60;;
4389;SDS011;2209;48.982;8.406;2023-11-19T08:09:52;0.70;;;0.70;;
4389;SDS011;2209;48.982;8.406;2023-11-19T08:12:14;0.63;;;0.60;;
4389;SDS011;2209;48.982;8.406;2023-11-19T08:14:37;0.70;;;0.70;;
4389;SDS011;2209;48.982;8.406;2023-11-19T08:16:59;2.10;;;0.83;;
4389;SDS011;2209;48.982;8.406;2023-11-19T08:19:23;0.80;;;0.80;;
4389;SDS011;2209;48.982;8.406;2023-11-19T08:21:45;2.10;;;0.80;;
4389;SDS011;2209;48.982;8.406;2023-11-19T08:24:07;1.57;;;0.70;;
4389;SDS011;2209;48.982;8.406;2023-11-19T08:26:29;0.70;;;0.60;;
4389;SDS011;2209;48.982;8.406;2023-11-19T08:28:51;1.53;;;1.10;;
4389;SDS011;2209;48.982;8.406;2023-11-19T08:31:14;2.17;;;1.00;;
4389;SDS011;2209;48.982;8.406;2023-11-19T08:33:36;1.73;;;0.70;;
4389;SDS011;2209;48.982;8.406;2023-11-19T08:35:59;0.80;;;0.63;;
4389;SDS011;2209;48.982;8.406;2023-11-19T08:38:21;0.80;;;0.80;;
4389;SDS011;2209;48.982;8.406;2023-11-19T08:40:43;2.70;;;0.90;;
4389;SDS011;2209;48.982;8.406;2023-11-19T08:43:05;0.70;;;0.70;;
4389;SDS011;2209;48.982;8.406;2023-11-19T08:45:27;2.03;;;0.70;;
4389;SDS011;2209;48.982;8.406;2023-11-19T08:47:50;0.90;;;0.90;;
4389;SDS011;2209;48.982;8.406;2023-11-19T08:50:12;0.80;;;0.73;;
4389;SDS011;2209;48.982;8.406;2023-11-19T08:52:35;3.00;;;0.90;;
4389;SDS011;2209;48.982;8.406;2023-11-19T08:54:57;2.70;;;0.97;;
4389;SDS011;2209;48.982;8.406;2023-11-19T08:57:19;1.07;;;0.80;;
4389;SDS011;2209;48.982;8.406;2023-11-19T08:59:41;1.10;;;0.97;;
4389;SDS011;2209;48.982;8.406;2023-11-19T09:02:04;0.80;;;0.80;;
4389;SDS011;2209;48.982;8.406;2023-11-19T09:04:27;2.87;;;0.90;;
4389;SDS011;2209;48.982;8.406;2023-11-19T09:06:49;0.90;;;0.80;;
4389;SDS011;2209;48.982;8.406;2023-11-19T09:09:12;0.80;;;0.80;;
4389;SDS011;2209;48.982;8.406;2023-11-19T09:11:34;0.90;;;0.80;;
4389;SDS011;2209;48.982;8.406;2023-11-19T09:13:57;0.90;;;0.80;;
4389;SDS011;2209;48.982;8.406;2023-11-19T09:16:19;0.80;;;0.80;;
4389;SDS011;2209;48.982;8.406;2023-11-19T09:18:42;1.43;;;0.83;;
4389;SDS011;2209;48.982;8.406;2023-11-19T09:21:04;0.80;;;0.77;;
4389;SDS011;2209;48.982;8.406;2023-11-19T09:23:26;1.00;;;0.77;;
4389;SDS011;2209;48.982;8.406;2023-11-19T09:25:50;0.90;;;0.80;;
4389;SDS011;2209;48.982;8.406;2023-11-19T09:28:12;0.80;;;0.80;;
4389;SDS011;2209;48.982;8.406;2023-11-19T09:30:35;2.63;;;0.80;;
4389;SDS011;2209;48.982;8.406;2023-11-19T09:32:57;0.93;;;0.80;;
4389;SDS011;2209;48.982;8.406;2023-11-19T09:35:20;1.00;;;0.90;;
4389;SDS011;2209;48.982;8.406;2023-11-19T09:37:42;1.03;;;0.80;;
4389;SDS011;2209;48.982;8.406;2023-11-19T09:40:05;1.20;;;0.80;;
4389;SDS011;2209;48.982;8.406;2023-11-19T09:42:31;2.33;;;0.90;;
4389;SDS011;2209;48.982;8.406;2023-11-19T09:45:04;2.53;;;0.90;;
4389;SDS011;2209;48.982;8.406;2023-11-19T09:47:34;0.80;;;0.80;;
4389;SDS011;2209;48.982;8.406;2023-11-19T09:49:56;0.80;;;0.80;;
4389;SDS011;2209;48.982;8.406;2023-11-19T09:52:18;0.80;;;0.80;;
4389;SDS011;2209;48.982;8.406;2023-11-19T09:54:40;2.80;;;1.97;;
4389;SDS011;2209;48.982;8.406;2023-11-19T09:57:02;1.00;;;1.00;;
4389;SDS011;2209;48.982;8.406;2023-11-19T09:59:27;3.40;;;1.37;;
4389;SDS011;2209;48.982;8.406;2023-11-19T10:01:49;0.70;;;0.70;;
4389;SDS011;2209;48.982;8.406;2023-11-19T10:04:12;1.47;;;0.80;;
4389;SDS011;2209;48.982;8.406;2023-11-19T10:06:37;0.97;;;0.90;;
4389;SDS011;2209;48.982;8.406;2023-11-19T10:08:59;4.83;;;0.90;;
4389;SDS011;2209;48.982;8.406;2023-11-19T10:11:21;1.67;;;0.77;;
4389;SDS011;2209;48.982;8.406;2023-11-19T10:13:43;0.80;;;0.80;;
4389;SDS011;2209;48.982;8.406;2023-11-19T10:16:09;0.73;;;0.73;;
4389;SDS011;2209;48.982;8.406;2023-11-19T10:18:33;1.67;;;0.90;;
4389;SDS011;2209;48.982;8.406;2023-11-19T10:20:58;0.80;;;0.80;;
4389;SDS011;2209;48.982;8.406;2023-11-19T10:23:20;3.00;;;1.10;;
4389;SDS011;2209;48.982;8.406;2023-11-19T10:25:42;1.00;;;1.00;;
4389;SDS011;2209;48.982;8.406;2023-11-19T10:28:04;0.87;;;0.87;;
4389;SDS011;2209;48.982;8.406;2023-11-19T10:30:26;1.53;;;0.90;;
4389;SDS011;2209;48.982;8.406;2023-11-19T10:33:03;0.90;;;0.90;;
4389;SDS011;2209;48.982;8.406;2023-11-19T10:35:27;0.80;;;0.80;;
4389;SDS011;2209;48.982;8.406;2023-11-19T10:37:49;2.30;;;0.97;;
4389;SDS011;2209;48.982;8.406;2023-11-19T10:40:11;1.00;;;1.00;;
4389;SDS011;2209;48.982;8.406;2023-11-19T10:42:34;0.80;;;0.70;;
4389;SDS011;2209;48.982;8.406;2023-11-19T10:44:56;1.37;;;0.90;;
4389;SDS011;2209;48.982;8.406;2023-11-19T10:47:18;1.00;;;0.90;;
4389;SDS011;2209;48.982;8.406;2023-11-19T10:49:42;1.10;;;1.00;;
4389;SDS011;2209;48.982;8.406;2023-11-19T10:52:06;0.87;;;0.83;;
4389;SDS011;2209;48.982;8.406;2023-11-19T10:54:30;1.23;;;1.13;;
4389;SDS011;2209;48.982;8.406;2023-11-19T10:56:54;1.00;;;0.90;;
4389;SDS011;2209;48.982;8.406;2023-11-19T10:59:19;1.80;;;1.10;;
4389;SDS011;2209;48.982;8.406;2023-11-19T11:01:43;1.07;;;0.97;;
4389;SDS011;2209;48.982;8.406;2023-11-19T11:04:06;1.20;;;1.10;;
4389;SDS011;2209;48.982;8.406;2023-11-19T11:06:36;2.60;;;0.80;;
4389;SDS011;2209;48.982;8.406;2023-11-19T11:08:59;2.47;;;1.17;;
4389;SDS011;2209;48.982;8.406;2023-11-19T11:11:22;3.13;;;2.17;;
4389;SDS011;2209;48.982;8.406;2023-11-19T11:13:45;1.80;;;1.70;;
4389;SDS011;2209;48.982;8.406;2023-11-19T11:16:09;4.63;;;1.50;;
4389;SDS011;2209;48.982;8.406;2023-11-19T11:18:31;2.60;;;1.03;;
4389;SDS011;2209;48.982;8.406;2023-11-19T11:20:54;1.50;;;1.10;;
4389;SDS011;2209;48.982;8.406;2023-11-19T11:26:33;1.87;;;1.13;;
4389;SDS011;2209;48.982;8.406;2023-11-19T11:29:05;2.60;;;1.10;;
4389;SDS011;2209;48.982;8.406;2023-11-19T11:31:36;1.27;;;1.17;;
4389;SDS011;2209;48.982;8.406;2023-11-19T11:34:10;1.30;;;1.10;;
4389;SDS011;2209;48.982;8.406;2023-11-19T11:36:46;1.20;;;1.10;;
4389;SDS011;2209;48.982;8.406;2023-11-19T11:39:14;1.77;;;1.07;;
4389;SDS011;2209;48.982;8.406;2023-11-19T11:41:44;1.40;;;1.30;;
4389;SDS011;2209;48.982;8.406;2023-11-19T11:44:06;1.10;;;1.00;;
4389;SDS011;2209;48.982;8.406;2023-11-19T11:49:15;2.03;;;1.30;;
4389;SDS011;2209;48.982;8.406;2023-11-19T11:51:59;3.30;;;1.30;;
4389;SDS011;2209;48.982;8.406;2023-11-19T11:54:26;2.70;;;1.30;;
4389;SDS011;2209;48.982;8.406;2023-11-19T11:57:01;3.20;;;1.10;;
4389;SDS011;2209;48.982;8.406;2023-11-19T12:02:14;1.30;;;1.20;;
4389;SDS011;2209;48.982;8.406;2023-11-19T12:04:38;1.23;;;1.10;;
4389;SDS011;2209;48.982;8.406;2023-11-19T12:07:04;1.17;;;1.07;;
4389;SDS011;2209;48.982;8.406;2023-11-19T12:09:27;1.30;;;1.20;;
4389;SDS011;2209;48.982;8.406;2023-11-19T12:11:49;3.43;;;1.20;;
4389;SDS011;2209;48.982;8.406;2023-11-19T12:17:36;1.50;;;1.40;;
4389;SDS011;2209;48.982;8.406;2023-11-19T12:20:09;2.03;;;1.50;;
4389;SDS011;2209;48.982;8.406;2023-11-19T12:22:32;1.57;;;1.00;;
4389;SDS011;2209;48.982;8.406;2023-11-19T12:24:54;1.40;;;1.30;;
4389;SDS011;2209;48.982;8.406;2023-11-19T12:27:16;4.20;;;1.57;;
4389;SDS011;2209;48.982;8.406;2023-11-19T12:29:41;1.83;;;1.27;;
4389;SDS011;2209;48.982;8.406;2023-11-19T12:32:06;1.40;;;0.93;;
4389;SDS011;2209;48.982;8.406;2023-11-19T12:34:28;2.97;;;1.10;;
4389;SDS011;2209;48.982;8.406;2023-11-19T12:36:50;1.87;;;1.13;;
4389;SDS011;2209;48.982;8.406;2023-11-19T12:39:12;2.97;;;1.30;;
4389;SDS011;2209;48.982;8.406;2023-11-19T12:41:48;3.23;;;1.60;;
4389;SDS011;2209;48.982;8.406;2023-11-19T12:44:10;1.73;;;1.20;;
4389;SDS011;2209;48.982;8.406;2023-11-19T12:46:33;2.70;;;1.30;;
4389;SDS011;2209;48.982;8.406;2023-11-19T12:48:56;2.23;;;1.10;;
4389;SDS011;2209;48.982;8.406;2023-11-19T12:51:18;2.07;;;1.20;;
4389;SDS011;2209;48.982;8.406;2023-11-19T12:53:47;1.13;;;1.03;;
4389;SDS011;2209;48.982;8.406;2023-11-19T12:56:11;1.63;;;1.10;;
4389;SDS011;2209;48.982;8.406;2023-11-19T12:58:34;1.37;;;1.20;;
4389;SDS011;2209;48.982;8.406;2023-11-19T13:01:00;3.60;;;1.40;;
4389;SDS011;2209;48.982;8.406;2023-11-19T13:03:28;8.27;;;1.23;;
4389;SDS011;2209;48.982;8.406;2023-11-19T13:06:00;1.13;;;1.00;;
4389;SDS011;2209;48.982;8.406;2023-11-19T13:08:23;2.17;;;1.10;;
4389;SDS011;2209;48.982;8.406;2023-11-19T13:10:54;1.47;;;1.10;;
4389;SDS011;2209;48.982;8.406;2023-11-19T13:13:16;2.33;;;1.10;;
4389;SDS011;2209;48.982;8.406;2023-11-19T13:15:38;2.73;;;1.37;;
4389;SDS011;2209;48.982;8.406;2023-11-19T13:18:01;2.53;;;1.60;;
4389;SDS011;2209;48.982;8.406;2023-11-19T13:20:24;3.93;;;1.37;;
4389;SDS011;2209;48.982;8.406;2023-11-19T13:22:54;3.43;;;1.40;;
4389;SDS011;2209;48.982;8.406;2023-11-19T13:25:17;1.20;;;1.10;;
4389;SDS011;2209;48.982;8.406;2023-11-19T13:27:39;1.20;;;1.10;;
4389;SDS011;2209;48.982;8.406;2023-11-19T13:30:04;1.13;;;1.00;;
4389;SDS011;2209;48.982;8.406;2023-11-19T13:32:27;5.70;;;1.00;;
4389;SDS011;2209;48.982;8.406;2023-11-19T13:34:49;3.90;;;1.40;;
4389;SDS011;2209;48.982;8.406;2023-11-19T13:37:11;1.70;;;1.00;;
4389;SDS011;2209;48.982;8.406;2023-11-19T13:39:35;2.70;;;1.50;;
4389;SDS011;2209;48.982;8.406;2023-11-19T13:41:57;2.90;;;1.00;;
4389;SDS011;2209;48.982;8.406;2023-11-19T13:44:19;3.47;;;1.10;;
4389;SDS011;2209;48.982;8.406;2023-11-19T13:46:43;2.90;;;1.03;;
4389;SDS011;2209;48.982;8.406;2023-11-19T13:49:06;2.37;;;1.13;;
4389;SDS011;2209;48.982;8.406;2023-11-19T13:51:28;2.37;;;1.13;;
4389;SDS011;2209;48.982;8.406;2023-11-19T13:53:50;3.67;;;1.30;;
4389;SDS011;2209;48.982;8.406;2023-11-19T13:56:13;2.17;;;1.10;;
4389;SDS011;2209;48.982;8.406;2023-11-19T13:58:36;1.57;;;0.90;;
4389;SDS011;2209;48.982;8.406;2023-11-19T14:00:58;2.60;;;1.13;;
4389;SDS011;2209;48.982;8.406;2023-11-19T14:03:20;5.43;;;1.17;;
4389;SDS011;2209;48.982;8.406;2023-11-19T14:05:42;1.77;;;1.20;;
4389;SDS011;2209;48.982;8.406;2023-11-19T14:08:04;2.27;;;1.10;;
4389;SDS011;2209;48.982;8.406;2023-11-19T14:10:31;3.87;;;1.33;;
4389;SDS011;2209;48.982;8.406;2023-11-19T14:12:54;1.93;;;0.93;;
4389;SDS011;2209;48.982;8.406;2023-11-19T14:15:17;2.30;;;1.30;;
4389;SDS011;2209;48.982;8.406;2023-11-19T14:17:39;1.20;;;1.10;;
4389;SDS011;2209;48.982;8.406;2023-11-19T14:20:02;2.53;;;1.20;;
4389;SDS011;2209;48.982;8.406;2023-11-19T14:22:25;1.17;;;1.07;;
4389;SDS011;2209;48.982;8.406;2023-11-19T14:24:47;1.40;;;1.27;;
4389;SDS011;2209;48.982;8.406;2023-11-19T14:27:08;6.73;;;1.40;;
4389;SDS011;2209;48.982;8.406;2023-11-19T14:29:32;1.50;;;1.10;;
4389;SDS011;2209;48.982;8.406;2023-11-19T14:31:54;1.97;;;1.03;;
4389;SDS011;2209;48.982;8.406;2023-11-19T14:34:16;1.60;;;1.20;;
4389;SDS011;2209;48.982;8.406;2023-11-19T14:36:39;1.37;;;1.20;;
4389;SDS011;2209;48.982;8.406;2023-11-19T14:39:01;2.57;;;1.47;;
4389;SDS011;2209;48.982;8.406;2023-11-19T14:41:24;1.27;;;1.17;;
4389;SDS011;2209;48.982;8.406;2023-11-19T14:43:46;2.43;;;1.33;;
4389;SDS011;2209;48.982;8.406;2023-11-19T14:46:09;1.43;;;1.20;;
4389;SDS011;2209;48.982;8.406;2023-11-19T14:48:31;2.60;;;1.00;;
4389;SDS011;2209;48.982;8.406;2023-11-19T14:50:53;1.20;;;1.00;;
4389;SDS011;2209;48.982;8.406;2023-11-19T14:53:15;1.10;;;1.00;;
4389;SDS011;2209;48.982;8.406;2023-11-19T14:55:38;1.13;;;1.00;;
4389;SDS011;2209;48.982;8.406;2023-11-19T14:58:00;2.80;;;1.10;;
4389;SDS011;2209;48.982;8.406;2023-11-19T15:00:22;2.47;;;1.00;;
4389;SDS011;2209;48.982;8.406;2023-11-19T15:02:47;0.80;;;0.80;;